LIEO Airport Information

Runway Information
Runway 05 Length 8025 ft width 148 ft
Elevation 35 ft Threshold 805 ft Heading 53
Runway 23 Length 8025 ft Width 148 ft
Elevation 19 ft Threshold 495 ft Heading 233
Airport Frequencies
Type APP Name OLBIA RADA Frequency 125.95 MHZ
Type ATIS Name ATIS Frequency 113.9 MHZ
Type TWR Name OLBIA TWR Frequency 118.975 MHZ
Airport Navaids
Type VOR-DME Name Olbia Costa Smeralda Frequency 113900 KHZ
Type NDB Name Olbia Costa Smeralda Frequency 357 KHZ
Airport Weather Information & NOTAM
ADDS - METARS form results

(0719 UTC 20 April 2021)
Data provider http://aviationweather.gov/metar/data/
 
METAR text: LIEO 200650Z 23008KT CAVOK 12/08 Q1017
Conditions at: LIEO (OLBIA/COSTA SMER, IT) observed 0650 UTC 20 April 2021
Temperature: 12.0°C (54°F)
Dewpoint: 8.0°C (46°F) [RH = 76%]
Pressure (altimeter): 30.03 inches Hg (1017.0 mb)
Winds: from the SW (230 degrees) at 9 MPH (8 knots; 4.1 m/s)
Visibility: 6 or more miles (10+ km)
Ceiling: ceiling and visibility are OK
Clouds: unknown
Weather: no significant weather observed at this time

METAR text: LIEO 200620Z 24010KT CAVOK 10/07 Q1017
Conditions at: LIEO (OLBIA/COSTA SMER, IT) observed 0620 UTC 20 April 2021
Temperature: 10.0°C (50°F)
Dewpoint: 7.0°C (45°F) [RH = 82%]
Pressure (altimeter): 30.03 inches Hg (1017.0 mb)
Winds: from the WSW (240 degrees) at 12 MPH (10 knots; 5.1 m/s)
Visibility: 6 or more miles (10+ km)
Ceiling: ceiling and visibility are OK
Clouds: unknown
Weather: no significant weather observed at this time

Forecast for: LIEO (OLBIA/COSTA SMER, IT)
Text: TAF LIEO 200500Z 2006/2106 24008KT 9999 SCT040
Forecast period: 0600 to 1000 UTC 20 April 2021
Forecast type: FROM: standard forecast or significant change
Winds: from the WSW (240 degrees) at 9 MPH (8 knots; 4.1 m/s)
Visibility: 6 or more miles (10+ km)
Ceiling: at least 12,000 feet AGL
Clouds: scattered clouds at 4000 feet AGL
Weather: no significant weather forecast for this period
Text: BECMG 2010/2012 08010KT
Forecast period: 1000 to 1800 UTC 20 April 2021
Forecast type: BECOMING: Conditions expected to become as follows by 1200 UTC 20 April 2021
Winds: from the E (80 degrees) at 12 MPH (10 knots; 5.1 m/s)
Visibility: 6 or more miles (10+ km)
Ceiling: at least 12,000 feet AGL
Clouds: scattered clouds at 4000 feet AGL
Weather: no significant weather forecast for this period
Text: BECMG 2018/2020 VRB04KT
Forecast period: 1800 UTC 20 April 2021 to 0600 UTC 21 April 2021
Forecast type: BECOMING: Conditions expected to become as follows by 2000 UTC 20 April 2021
Winds: variable direction winds at 5 MPH (4 knots; 2.1 m/s)
Visibility: 6 or more miles (10+ km)
Ceiling: at least 12,000 feet AGL
Clouds: scattered clouds at 4000 feet AGL
Weather: no significant weather forecast for this period